CheckWX is a tool to help pilots better visualize weather data.  It is not intended as a substitute for an official pre-flight weather briefing.

20:32:07 UTC

KFKL TAF
Venango Regional Airport
Franklin, Pennsylvania, USA
KFKL 221906Z 2219/2318 31012G25KT 6SM -SN OVC015 FM231200 29015G19KT P6SM SCT250

Mar-22@
19:00 UTC

Mar-22 @ 19:00 UTC

Mar-23@
12:00 UTC

Mar-23 @ 12:00 UTC

KFKL 221906Z 2219/2318 31012G25KT 6SM -SN OVC015
Wind
  • 310° at 12 KTS
  • {Gusting to 25 KTS
Conditions
Light Snow
Cloud Levels
  • Overcast at 1,500' AGL

Mar-23@
12:00 UTC

Mar-23 @ 12:00 UTC

Mar-23@
18:00 UTC

Mar-23 @ 18:00 UTC

FM231200 29015G19KT P6SM SCT250

From

From Standard forecast or significant change

Wind
  • 290° at 15 KTS
  • {Gusting to 19 KTS
Cloud Levels
  • Scattered at 25,000' AGL